Time,TemperatureF,DewpointF,PressureIn,WindDirection,WindDirectionDegrees,WindSpeedMPH,WindSpeedGustMPH,Humidity,HourlyPrecipIn,Conditions,Clouds,dailyrainin,SoftwareType,DateUTC
2013-01-03 00:00:00,24.1,20.2,30.09,SW,225,5.0,12.0,85,0.00,,OVC065,0.00,VWS V14.01,2013-01-03 06:00:00,
2013-01-03 00:13:00,24.2,21.0,30.09,WSW,245,3.0,6.0,87,0.00,,,0.00,weatherlink.com 1.10,2013-01-03 06:13:00,
2013-01-03 00:28:00,24.9,22.0,30.09,SW,236,3.0,9.0,87,0.00,,,0.00,weatherlink.com 1.10,2013-01-03 06:28:00,
2013-01-03 00:30:00,25.0,21.7,30.08,SW,225,4.0,10.0,87,0.00,,OVC065,0.00,VWS V14.01,2013-01-03 06:30:00,
2013-01-03 00:43:00,25.0,22.0,30.08,West,264,4.0,12.0,87,0.00,,,0.00,weatherlink.com 1.10,2013-01-03 06:43:00,
2013-01-03 00:58:00,24.8,22.0,30.08,WSW,238,4.0,10.0,88,0.00,,,0.00,weatherlink.com 1.10,2013-01-03 06:58:00,
2013-01-03 01:00:00,24.8,21.8,30.08,WSW,248,4.0,13.0,88,0.00,,OVC065,0.00,VWS V14.01,2013-01-03 07:00:00,
2013-01-03 01:13:00,24.7,22.0,30.09,WNW,283,5.0,10.0,88,0.00,,,0.00,weatherlink.com 1.10,2013-01-03 07:13:00,
2013-01-03 01:28:00,24.8,22.0,30.09,West,280,7.0,14.0,88,0.00,,,0.00,weatherlink.com 1.10,2013-01-03 07:28:00,
2013-01-03 01:30:00,24.8,21.8,30.09,West,270,7.0,15.0,88,0.00,,OVC065,0.00,VWS V14.01,2013-01-03 07:30:00,
2013-01-03 01:43:00,24.6,22.0,30.09,West,259,5.0,11.0,88,0.00,,,0.00,weatherlink.com 1.10,2013-01-03 07:43:00,
2013-01-03 01:58:00,24.3,21.0,30.09,WNW,295,4.0,8.0,88,0.00,,,0.00,weatherlink.com 1.10,2013-01-03 07:58:00,
2013-01-03 02:00:00,24.4,21.4,30.09,West,270,5.0,11.0,88,0.00,,OVC065,0.00,VWS V14.01,2013-01-03 08:00:00,
2013-01-03 02:13:00,24.4,21.0,30.10,West,279,3.0,10.0,88,0.00,,,0.00,weatherlink.com 1.10,2013-01-03 08:13:00,
2013-01-03 02:28:00,24.5,22.0,30.10,WNW,286,1.0,9.0,88,0.00,,,0.00,weatherlink.com 1.10,2013-01-03 08:28:00,
2013-01-03 02:30:00,24.5,21.5,30.10,West,270,4.0,10.0,88,0.00,,OVC065,0.00,VWS V14.01,2013-01-03 08:30:00,
2013-01-03 02:43:00,24.6,22.0,30.10,West,275,3.0,9.0,89,0.00,,,0.00,weatherlink.com 1.10,2013-01-03 08:43:00,
2013-01-03 02:58:00,24.7,22.0,30.10,WNW,283,4.0,7.0,89,0.00,,,0.00,weatherlink.com 1.10,2013-01-03 08:58:00,
2013-01-03 03:00:00,24.7,21.9,30.10,West,270,4.0,9.0,89,0.00,,OVC065,0.00,VWS V14.01,2013-01-03 09:00:00,
2013-01-03 03:13:00,24.9,22.0,30.10,West,269,6.0,9.0,89,0.00,,,0.00,weatherlink.com 1.10,2013-01-03 09:13:00,
2013-01-03 03:28:00,25.0,22.0,30.10,WSW,248,4.0,7.0,89,0.00,,,0.00,weatherlink.com 1.10,2013-01-03 09:28:00,
2013-01-03 03:30:00,25.0,22.2,30.10,West,270,4.0,9.0,89,0.00,,OVC065,0.00,VWS V14.01,2013-01-03 09:30:00,
2013-01-03 03:43:00,25.1,23.0,30.09,West,276,3.0,7.0,90,0.00,,,0.00,weatherlink.com 1.10,2013-01-03 09:43:00,
2013-01-03 03:58:00,25.2,23.0,30.10,West,269,4.0,8.0,90,0.00,,,0.00,weatherlink.com 1.10,2013-01-03 09:58:00,
2013-01-03 04:00:00,25.2,22.7,30.09,West,270,4.0,8.0,90,0.00,,OVC065,0.00,VWS V14.01,2013-01-03 10:00:00,
2013-01-03 04:13:00,25.4,23.0,30.09,West,280,3.0,12.0,91,0.00,,,0.00,weatherlink.com 1.10,2013-01-03 10:13:00,
2013-01-03 04:28:00,25.6,23.0,30.09,WSW,249,3.0,9.0,91,0.00,,,0.00,weatherlink.com 1.10,2013-01-03 10:28:00,
2013-01-03 04:30:00,25.6,23.3,30.09,West,270,4.0,12.0,91,0.00,,OVC065,0.00,VWS V14.01,2013-01-03 10:30:00,
2013-01-03 04:43:00,25.7,24.0,30.10,WSW,241,5.0,11.0,91,0.00,,,0.00,weatherlink.com 1.10,2013-01-03 10:43:00,
2013-01-03 04:58:00,25.8,24.0,30.10,WNW,284,3.0,9.0,91,0.00,,,0.00,weatherlink.com 1.10,2013-01-03 10:58:00,
2013-01-03 05:00:00,25.8,23.5,30.10,West,270,5.0,11.0,91,0.00,,OVC065,0.00,VWS V14.01,2013-01-03 11:00:00,
2013-01-03 05:13:00,25.9,24.0,30.10,West,280,6.0,9.0,91,0.00,,,0.00,weatherlink.com 1.10,2013-01-03 11:13:00,
2013-01-03 05:28:00,26.0,24.0,30.10,West,278,5.0,9.0,91,0.00,,,0.00,weatherlink.com 1.10,2013-01-03 11:28:00,
2013-01-03 05:30:00,26.1,23.8,30.10,West,270,5.0,11.0,91,0.00,,OVC065,0.00,VWS V14.01,2013-01-03 11:30:00,
2013-01-03 05:43:00,26.1,24.0,30.11,West,275,3.0,12.0,91,0.00,,,0.00,weatherlink.com 1.10,2013-01-03 11:43:00,
2013-01-03 05:58:00,26.3,24.0,30.11,WSW,237,6.0,11.0,91,0.00,,,0.00,weatherlink.com 1.10,2013-01-03 11:58:00,
2013-01-03 06:00:00,26.3,24.0,30.10,West,270,6.0,12.0,91,0.00,,OVC065,0.00,VWS V14.01,2013-01-03 12:00:00,
2013-01-03 06:13:00,26.5,24.0,30.11,West,268,5.0,12.0,91,0.00,,,0.00,weatherlink.com 1.10,2013-01-03 12:13:00,
2013-01-03 06:28:00,26.6,24.0,30.11,WNW,291,6.0,12.0,90,0.00,,,0.00,weatherlink.com 1.10,2013-01-03 12:28:00,
2013-01-03 06:43:00,26.6,24.0,30.11,West,276,6.0,11.0,91,0.00,,,0.00,weatherlink.com 1.10,2013-01-03 12:43:00,
2013-01-03 06:48:00,26.6,24.1,30.11,WNW,288,6.0,6.0,90,0.00,,OVC065,0.00,VWS V14.01,2013-01-03 12:48:00,
2013-01-03 06:53:00,26.6,24.1,30.12,West,260,6.0,10.0,90,0.00,,OVC028,0.00,VWS V14.01,2013-01-03 12:53:00,
2013-01-03 06:59:00,26.6,24.1,30.12,WNW,287,3.0,11.0,90,0.00,,OVC028,0.00,VWS V14.01,2013-01-03 12:59:00,
2013-01-03 07:04:00,26.6,24.1,30.12,WNW,300,8.0,12.0,90,0.00,,OVC028,0.00,VWS V14.01,2013-01-03 13:04:00,
2013-01-03 07:09:00,26.6,23.8,30.12,WNW,283,10.0,12.0,89,0.00,,OVC028,0.00,VWS V14.01,2013-01-03 13:09:00,
2013-01-03 07:14:00,26.6,23.8,30.12,West,264,5.0,12.0,89,0.00,,OVC028,0.00,VWS V14.01,2013-01-03 13:14:00,
2013-01-03 07:19:00,26.6,23.8,30.12,WNW,291,10.0,13.0,89,0.00,,OVC028,0.00,VWS V14.01,2013-01-03 13:19:00,
2013-01-03 07:24:00,26.7,23.9,30.13,NW,319,4.0,13.0,89,0.00,,OVC028,0.00,VWS V14.01,2013-01-03 13:24:00,
2013-01-03 07:29:00,26.7,23.9,30.13,West,276,6.0,13.0,89,0.00,,OVC028,0.00,VWS V14.01,2013-01-03 13:29:00,
2013-01-03 07:34:00,26.7,23.9,30.13,West,264,6.0,8.0,89,0.00,,OVC028,0.00,VWS V14.01,2013-01-03 13:34:00,
2013-01-03 07:39:00,26.7,23.9,30.13,WNW,283,5.0,10.0,89,0.00,,OVC028,0.00,VWS V14.01,2013-01-03 13:39:00,
2013-01-03 07:44:00,26.7,23.6,30.13,WNW,296,6.0,10.0,88,0.00,,OVC028,0.00,VWS V14.01,2013-01-03 13:44:00,
2013-01-03 07:49:00,26.7,23.6,30.14,WSW,250,6.0,10.0,88,0.00,,OVC028,0.00,VWS V14.01,2013-01-03 13:49:00,
2013-01-03 07:53:00,26.7,23.9,30.14,West,273,6.0,10.0,89,0.00,,OVC028,0.00,VWS V14.01,2013-01-03 13:53:00,
2013-01-03 07:58:00,26.7,24.2,30.14,West,276,7.0,10.0,90,0.00,,OVC028,0.00,VWS V14.01,2013-01-03 13:58:00,
2013-01-03 08:03:00,26.6,24.1,30.14,NW,306,9.0,9.0,90,0.00,,OVC028,0.00,VWS V14.01,2013-01-03 14:03:00,
2013-01-03 08:08:00,26.7,23.9,30.14,WNW,291,9.0,12.0,89,0.00,,OVC028,0.00,VWS V14.01,2013-01-03 14:08:00,
2013-01-03 08:13:00,26.7,23.9,30.14,West,271,9.0,12.0,89,0.00,,OVC028,0.00,VWS V14.01,2013-01-03 14:13:00,
2013-01-03 08:18:00,26.7,23.9,30.14,West,278,5.0,12.0,89,0.00,,OVC028,0.00,VWS V14.01,2013-01-03 14:18:00,
2013-01-03 08:23:00,26.7,23.6,30.14,West,281,6.0,12.0,88,0.00,,OVC028,0.00,VWS V14.01,2013-01-03 14:23:00,
2013-01-03 08:28:00,26.7,23.6,30.14,WNW,282,7.0,12.0,88,0.00,,OVC028,0.00,VWS V14.01,2013-01-03 14:28:00,
2013-01-03 08:33:00,26.7,23.6,30.14,WNW,291,8.0,9.0,88,0.00,,OVC027,0.00,VWS V14.01,2013-01-03 14:33:00,
2013-01-03 08:38:00,26.7,23.6,30.14,West,275,7.0,12.0,88,0.00,,OVC027,0.00,VWS V14.01,2013-01-03 14:38:00,
2013-01-03 08:43:00,26.6,23.5,30.15,WSW,238,7.0,12.0,88,0.00,,OVC027,0.00,VWS V14.01,2013-01-03 14:43:00,
2013-01-03 08:48:00,26.3,23.0,30.15,West,277,8.0,12.0,87,0.00,,OVC027,0.00,VWS V14.01,2013-01-03 14:48:00,
2013-01-03 08:53:00,26.0,22.4,30.15,West,275,10.0,13.0,86,0.00,,OVC014,0.00,VWS V14.01,2013-01-03 14:53:00,
2013-01-03 08:58:00,25.7,22.1,30.15,West,279,9.0,13.0,86,0.00,,OVC014,0.00,VWS V14.01,2013-01-03 14:58:00,
2013-01-03 09:03:00,25.6,22.0,30.15,West,280,9.0,10.0,86,0.00,,OVC014,0.00,VWS V14.01,2013-01-03 15:03:00,
2013-01-03 09:08:00,25.4,21.0,30.15,WNW,285,7.0,14.0,83,0.00,,OVC014,0.00,VWS V14.01,2013-01-03 15:08:00,
2013-01-03 09:13:00,25.2,20.8,30.16,West,280,8.0,16.0,83,0.00,,OVC014,0.00,VWS V14.01,2013-01-03 15:13:00,
2013-01-03 09:18:00,25.0,20.0,30.16,West,265,7.0,16.0,81,0.00,,OVC014,0.00,VWS V14.01,2013-01-03 15:18:00,
2013-01-03 09:23:00,24.8,19.5,30.16,West,275,8.0,16.0,80,0.00,,OVC014,0.00,VWS V14.01,2013-01-03 15:23:00,
2013-01-03 09:28:00,24.5,19.2,30.16,WSW,256,9.0,16.0,80,0.00,,OVC014,0.00,VWS V14.01,2013-01-03 15:28:00,
2013-01-03 09:33:00,24.3,19.0,30.17,WNW,284,8.0,12.0,80,0.00,,OVC014,0.00,VWS V14.01,2013-01-03 15:33:00,
2013-01-03 09:38:00,24.2,18.9,30.17,WNW,288,4.0,14.0,80,0.00,,OVC014,0.00,VWS V14.01,2013-01-03 15:38:00,
2013-01-03 09:43:00,24.0,19.0,30.17,WNW,288,5.0,15.0,81,0.00,,OVC014,0.00,VWS V14.01,2013-01-03 15:43:00,
2013-01-03 09:48:00,23.9,18.6,30.18,West,277,9.0,15.0,80,0.00,,OVC014,0.00,VWS V14.01,2013-01-03 15:48:00,
2013-01-03 09:53:00,23.7,18.7,30.18,West,269,10.0,15.0,81,0.00,,,0.00,VWS V14.01,2013-01-03 15:53:00,
2013-01-03 09:58:00,23.6,18.6,30.18,WNW,288,8.0,15.0,81,0.00,,,0.00,VWS V14.01,2013-01-03 15:58:00,
2013-01-03 10:03:00,23.6,18.6,30.18,West,277,8.0,14.0,81,0.00,,,0.00,VWS V14.01,2013-01-03 16:03:00,
2013-01-03 10:08:00,23.6,18.9,30.19,WNW,290,10.0,14.0,82,0.00,,,0.00,VWS V14.01,2013-01-03 16:08:00,
2013-01-03 10:13:00,23.6,18.9,30.18,West,272,9.0,14.0,82,0.00,,,0.00,VWS V14.01,2013-01-03 16:13:00,
2013-01-03 10:18:00,23.6,18.9,30.18,WNW,291,8.0,14.0,82,0.00,,,0.00,VWS V14.01,2013-01-03 16:18:00,
2013-01-03 10:23:00,23.6,18.9,30.18,West,268,11.0,14.0,82,0.00,,,0.00,VWS V14.01,2013-01-03 16:23:00,
2013-01-03 10:28:00,23.6,19.2,30.18,WNW,283,6.0,14.0,83,0.00,,,0.00,VWS V14.01,2013-01-03 16:28:00,
2013-01-03 10:33:00,23.6,19.2,30.18,WNW,292,10.0,15.0,83,0.00,,,0.00,VWS V14.01,2013-01-03 16:33:00,
2013-01-03 10:38:00,23.6,18.9,30.18,WNW,295,6.0,15.0,82,0.00,,,0.00,VWS V14.01,2013-01-03 16:38:00,
2013-01-03 10:43:00,23.6,18.9,30.18,WNW,289,10.0,15.0,82,0.00,,,0.00,VWS V14.01,2013-01-03 16:43:00,
2013-01-03 10:48:00,23.5,18.5,30.17,WNW,296,6.0,15.0,81,0.00,,,0.00,VWS V14.01,2013-01-03 16:48:00,
2013-01-03 10:53:00,23.5,18.8,30.18,WNW,286,6.0,15.0,82,0.00,,,0.00,VWS V14.01,2013-01-03 16:53:00,
2013-01-03 10:58:00,23.6,19.2,30.18,West,278,10.0,15.0,83,0.00,,,0.00,VWS V14.01,2013-01-03 16:58:00,
2013-01-03 11:03:00,23.6,19.5,30.18,West,269,7.0,10.0,84,0.00,,,0.00,VWS V14.01,2013-01-03 17:03:00,
2013-01-03 11:08:00,23.6,19.5,30.18,West,281,6.0,14.0,84,0.00,,,0.00,VWS V14.01,2013-01-03 17:08:00,
2013-01-03 11:13:00,23.6,20.0,30.18,WNW,300,11.0,14.0,86,0.00,,,0.00,VWS V14.01,2013-01-03 17:13:00,
2013-01-03 11:18:00,23.5,19.9,30.18,WNW,284,10.0,14.0,86,0.00,,,0.00,VWS V14.01,2013-01-03 17:18:00,
2013-01-03 11:23:00,23.6,20.3,30.18,WSW,247,3.0,14.0,87,0.00,,,0.00,VWS V14.01,2013-01-03 17:23:00,
2013-01-03 11:28:00,23.7,20.1,30.18,WNW,288,3.0,14.0,86,0.00,,,0.00,VWS V14.01,2013-01-03 17:28:00,
2013-01-03 11:33:00,23.8,20.5,30.18,West,281,7.0,9.0,87,0.00,,,0.00,VWS V14.01,2013-01-03 17:33:00,
2013-01-03 11:38:00,24.0,20.7,30.18,WNW,299,6.0,9.0,87,0.00,,,0.00,VWS V14.01,2013-01-03 17:38:00,
2013-01-03 11:43:00,24.1,20.8,30.17,West,267,6.0,9.0,87,0.00,,,0.00,VWS V14.01,2013-01-03 17:43:00,
2013-01-03 11:48:00,24.2,20.9,30.17,WNW,290,6.0,10.0,87,0.00,,,0.00,VWS V14.01,2013-01-03 17:48:00,
2013-01-03 11:53:00,24.4,21.1,30.17,WNW,283,6.0,11.0,87,0.00,,,0.00,VWS V14.01,2013-01-03 17:53:00,
2013-01-03 11:58:00,24.5,20.9,30.17,WNW,296,7.0,11.0,86,0.00,,,0.00,VWS V14.01,2013-01-03 17:58:00,
2013-01-03 12:03:00,24.6,21.0,30.17,WNW,292,8.0,9.0,86,0.00,,,0.00,VWS V14.01,2013-01-03 18:03:00,
2013-01-03 12:08:00,24.8,21.5,30.17,WNW,292,3.0,9.0,87,0.00,,,0.00,VWS V14.01,2013-01-03 18:08:00,
2013-01-03 12:13:00,24.8,21.2,30.17,West,277,6.0,10.0,86,0.00,,,0.00,VWS V14.01,2013-01-03 18:13:00,
2013-01-03 12:18:00,25.0,21.4,30.17,NW,315,7.0,10.0,86,0.00,,,0.00,VWS V14.01,2013-01-03 18:18:00,
2013-01-03 12:23:00,25.1,21.2,30.17,WNW,296,6.0,10.0,85,0.00,,,0.00,VWS V14.01,2013-01-03 18:23:00,
2013-01-03 12:28:00,25.1,21.0,30.17,WNW,284,5.0,10.0,84,0.00,,,0.00,VWS V14.01,2013-01-03 18:28:00,
2013-01-03 12:33:00,25.2,21.0,30.17,WNW,289,5.0,8.0,84,0.00,,,0.00,VWS V14.01,2013-01-03 18:33:00,
2013-01-03 12:38:00,25.2,20.8,30.17,West,259,6.0,11.0,83,0.00,,,0.00,VWS V14.01,2013-01-03 18:38:00,
2013-01-03 12:43:00,25.2,20.8,30.17,WNW,296,6.0,11.0,83,0.00,,,0.00,VWS V14.01,2013-01-03 18:43:00,
2013-01-03 12:48:00,25.1,21.0,30.17,West,275,7.0,12.0,84,0.00,,,0.00,VWS V14.01,2013-01-03 18:48:00,
2013-01-03 12:53:00,25.0,20.6,30.17,WNW,283,9.0,12.0,83,0.00,,,0.00,VWS V14.01,2013-01-03 18:53:00,
2013-01-03 12:58:00,25.0,20.9,30.18,WNW,291,8.0,12.0,84,0.00,,,0.00,VWS V14.01,2013-01-03 18:58:00,
2013-01-03 13:03:00,25.2,21.0,30.18,NW,309,3.0,9.0,84,0.00,,,0.00,VWS V14.01,2013-01-03 19:03:00,
2013-01-03 13:08:00,25.1,20.7,30.18,West,267,6.0,12.0,83,0.00,,,0.00,VWS V14.01,2013-01-03 19:08:00,
2013-01-03 13:13:00,25.1,21.0,30.18,West,271,7.0,12.0,84,0.00,,,0.00,VWS V14.01,2013-01-03 19:13:00,
2013-01-03 13:18:00,25.1,21.0,30.18,NNW,330,6.0,12.0,84,0.00,,,0.00,VWS V14.01,2013-01-03 19:18:00,
2013-01-03 13:56:00,24.4,20.3,30.18,West,271,8.0,12.0,84,0.00,,,0.00,VWS V14.01,2013-01-03 19:56:00,
2013-01-03 14:01:00,24.5,20.4,30.18,West,259,5.0,9.0,84,0.00,,,0.00,VWS V14.01,2013-01-03 20:01:00,
2013-01-03 14:06:00,24.4,20.3,30.19,West,265,4.0,11.0,84,0.00,,,0.00,VWS V14.01,2013-01-03 20:06:00,
2013-01-03 14:11:00,24.3,19.9,30.19,WNW,291,8.0,11.0,83,0.00,,,0.00,VWS V14.01,2013-01-03 20:11:00,
2013-01-03 14:16:00,24.4,20.3,30.19,West,280,9.0,11.0,84,0.00,,,0.00,VWS V14.01,2013-01-03 20:16:00,
2013-01-03 14:21:00,24.5,20.4,30.19,NW,305,6.0,11.0,84,0.00,,,0.00,VWS V14.01,2013-01-03 20:21:00,
2013-01-03 14:26:00,24.6,20.2,30.19,West,280,5.0,14.0,83,0.00,,,0.00,VWS V14.01,2013-01-03 20:26:00,
2013-01-03 14:31:00,24.6,20.5,30.19,West,280,6.0,8.0,84,0.00,,,0.00,VWS V14.01,2013-01-03 20:31:00,
2013-01-03 14:36:00,24.4,20.0,30.19,West,279,7.0,10.0,83,0.00,,,0.00,VWS V14.01,2013-01-03 20:36:00,
2013-01-03 14:41:00,24.4,20.0,30.20,WNW,296,9.0,11.0,83,0.00,,,0.00,VWS V14.01,2013-01-03 20:41:00,
2013-01-03 14:46:00,24.4,20.3,30.20,WNW,284,7.0,11.0,84,0.00,,,0.00,VWS V14.01,2013-01-03 20:46:00,
2013-01-03 14:51:00,24.4,20.0,30.20,WSW,256,7.0,11.0,83,0.00,,,0.00,VWS V14.01,2013-01-03 20:51:00,
2013-01-03 14:56:00,24.3,19.9,30.20,West,279,10.0,11.0,83,0.00,,,0.00,VWS V14.01,2013-01-03 20:56:00,
2013-01-03 15:01:00,24.2,19.8,30.20,West,272,6.0,8.0,83,0.00,,,0.00,VWS V14.01,2013-01-03 21:01:00,
2013-01-03 15:06:00,24.1,19.7,30.20,West,265,5.0,9.0,83,0.00,,,0.00,VWS V14.01,2013-01-03 21:06:00,
2013-01-03 15:11:00,24.0,19.3,30.21,WNW,292,3.0,12.0,82,0.00,,,0.00,VWS V14.01,2013-01-03 21:11:00,
2013-01-03 15:16:00,23.8,19.1,30.21,West,265,7.0,13.0,82,0.00,,,0.00,VWS V14.01,2013-01-03 21:16:00,
2013-01-03 15:21:00,23.8,19.4,30.21,WSW,248,8.0,13.0,83,0.00,,,0.00,VWS V14.01,2013-01-03 21:21:00,
2013-01-03 15:26:00,23.7,19.3,30.21,WNW,296,5.0,13.0,83,0.00,,,0.00,VWS V14.01,2013-01-03 21:26:00,
2013-01-03 15:31:00,23.6,18.9,30.21,West,281,9.0,11.0,82,0.00,,OVC042,0.00,VWS V14.01,2013-01-03 21:31:00,
2013-01-03 15:36:00,23.5,19.1,30.21,NW,309,5.0,12.0,83,0.00,,OVC042,0.00,VWS V14.01,2013-01-03 21:36:00,
2013-01-03 15:41:00,23.5,19.1,30.21,West,277,7.0,12.0,83,0.00,,OVC042,0.00,VWS V14.01,2013-01-03 21:41:00,
2013-01-03 15:46:00,23.4,19.0,30.22,West,269,9.0,12.0,83,0.00,,OVC042,0.00,VWS V14.01,2013-01-03 21:46:00,
2013-01-03 15:51:00,23.2,18.5,30.22,WNW,287,10.0,13.0,82,0.00,,OVC042,0.00,VWS V14.01,2013-01-03 21:51:00,
2013-01-03 15:56:00,23.1,18.4,30.22,WNW,299,8.0,13.0,82,0.00,,OVC042,0.00,VWS V14.01,2013-01-03 21:56:00,
2013-01-03 16:01:00,23.1,18.7,30.22,WSW,256,5.0,9.0,83,0.00,,OVC042,0.00,VWS V14.01,2013-01-03 22:01:00,
2013-01-03 16:06:00,23.0,18.3,30.23,West,271,11.0,11.0,82,0.00,,OVC042,0.00,VWS V14.01,2013-01-03 22:06:00,
2013-01-03 16:11:00,22.9,18.0,30.23,WNW,284,5.0,15.0,81,0.00,,OVC042,0.00,VWS V14.01,2013-01-03 22:11:00,
2013-01-03 16:16:00,22.8,18.4,30.23,West,281,9.0,15.0,83,0.00,,OVC042,0.00,VWS V14.01,2013-01-03 22:16:00,
2013-01-03 16:21:00,22.8,18.4,30.23,WSW,257,1.0,15.0,83,0.00,,OVC042,0.00,VWS V14.01,2013-01-03 22:21:00,
2013-01-03 16:26:00,22.7,18.3,30.23,West,273,4.0,15.0,83,0.00,,OVC042,0.00,VWS V14.01,2013-01-03 22:26:00,
2013-01-03 16:31:00,22.7,18.6,30.24,WSW,248,3.0,7.0,84,0.00,,OVC042,0.00,VWS V14.01,2013-01-03 22:31:00,
2013-01-03 16:36:00,22.6,18.5,30.24,SW,229,5.0,7.0,84,0.00,,OVC042,0.00,VWS V14.01,2013-01-03 22:36:00,
2013-01-03 16:41:00,22.5,18.4,30.24,West,275,7.0,8.0,84,0.00,,OVC042,0.00,VWS V14.01,2013-01-03 22:41:00,
2013-01-03 16:46:00,22.4,18.3,30.24,WNW,283,4.0,8.0,84,0.00,,OVC042,0.00,VWS V14.01,2013-01-03 22:46:00,
2013-01-03 16:51:00,22.3,18.2,30.24,WNW,292,4.0,9.0,84,0.00,,OVC042,0.00,VWS V14.01,2013-01-03 22:51:00,
2013-01-03 16:56:00,22.3,18.2,30.24,WSW,244,3.0,9.0,84,0.00,,OVC042,0.00,VWS V14.01,2013-01-03 22:56:00,
2013-01-03 17:01:00,22.3,18.2,30.24,West,276,5.0,9.0,84,0.00,,OVC042,0.00,VWS V14.01,2013-01-03 23:01:00,
2013-01-03 17:06:00,22.1,18.0,30.24,West,267,3.0,9.0,84,0.00,,OVC042,0.00,VWS V14.01,2013-01-03 23:06:00,
2013-01-03 17:11:00,22.0,18.2,30.24,West,277,5.0,9.0,85,0.00,,OVC042,0.00,VWS V14.01,2013-01-03 23:11:00,
2013-01-03 17:16:00,21.9,18.1,30.24,West,277,8.0,10.0,85,0.00,,OVC042,0.00,VWS V14.01,2013-01-03 23:16:00,
2013-01-03 17:21:00,21.8,17.7,30.24,WNW,287,6.0,11.0,84,0.00,,OVC042,0.00,VWS V14.01,2013-01-03 23:21:00,
2013-01-03 17:26:00,21.7,17.6,30.25,WNW,283,9.0,12.0,84,0.00,,OVC042,0.00,VWS V14.01,2013-01-03 23:26:00,
2013-01-03 17:31:00,21.7,17.6,30.25,WSW,257,10.0,10.0,84,0.00,,BKN042,0.00,VWS V14.01,2013-01-03 23:31:00,
2013-01-03 17:36:00,21.6,17.5,30.25,West,275,5.0,11.0,84,0.00,,BKN042,0.00,VWS V14.01,2013-01-03 23:36:00,
2013-01-03 17:41:00,21.5,17.4,30.25,West,273,11.0,11.0,84,0.00,,BKN042,0.00,VWS V14.01,2013-01-03 23:41:00,
2013-01-03 17:46:00,21.4,17.3,30.26,WNW,288,6.0,12.0,84,0.00,,BKN042,0.00,VWS V14.01,2013-01-03 23:46:00,
2013-01-03 17:51:00,21.4,17.3,30.26,WNW,287,8.0,12.0,84,0.00,,BKN042,0.00,VWS V14.01,2013-01-03 23:51:00,
2013-01-03 17:56:00,21.3,17.5,30.26,West,263,4.0,12.0,85,0.00,,BKN042,0.00,VWS V14.01,2013-01-03 23:56:00,
2013-01-03 18:01:00,21.2,17.4,30.26,West,275,5.0,7.0,85,0.00,,BKN042,0.00,VWS V14.01,2013-01-04 00:01:00,
2013-01-03 18:06:00,21.0,17.2,30.26,WSW,246,6.0,8.0,85,0.00,,SCT047,0.00,VWS V14.01,2013-01-04 00:06:00,
2013-01-03 18:11:00,20.7,16.9,30.26,South,191,2.0,8.0,85,0.00,,SCT047,0.00,VWS V14.01,2013-01-04 00:11:00,
2013-01-03 18:16:00,20.3,16.8,30.26,West,281,6.0,9.0,86,0.00,,SCT047,0.00,VWS V14.01,2013-01-04 00:16:00,
2013-01-03 18:21:00,20.0,16.5,30.26,West,271,6.0,9.0,86,0.00,,SCT047,0.00,VWS V14.01,2013-01-04 00:21:00,
2013-01-03 18:26:00,19.7,16.2,30.26,WNW,284,5.0,9.0,86,0.00,,SCT047,0.00,VWS V14.01,2013-01-04 00:26:00,
2013-01-03 18:31:00,19.4,15.9,30.26,West,277,4.0,6.0,86,0.00,,SCT047,0.00,VWS V14.01,2013-01-04 00:31:00,
2013-01-03 18:36:00,19.2,15.7,30.26,SW,232,4.0,7.0,86,0.00,,SCT047,0.00,VWS V14.01,2013-01-04 00:36:00,
2013-01-03 18:41:00,18.9,15.7,30.26,West,261,5.0,7.0,87,0.00,,SCT047,0.00,VWS V14.01,2013-01-04 00:41:00,
2013-01-03 18:46:00,18.5,15.3,30.26,West,281,2.0,7.0,87,0.00,,SCT047,0.00,VWS V14.01,2013-01-04 00:46:00,
2013-01-03 18:51:00,18.2,15.0,30.26,SW,218,6.0,7.0,87,0.00,,SCT047,0.00,VWS V14.01,2013-01-04 00:51:00,
2013-01-03 18:56:00,18.1,15.1,30.26,WNW,284,4.0,7.0,88,0.00,,SCT047,0.00,VWS V14.01,2013-01-04 00:56:00,
2013-01-03 19:01:00,17.9,14.9,30.27,West,271,6.0,6.0,88,0.00,,SCT047,0.00,VWS V14.01,2013-01-04 01:01:00,
2013-01-03 19:06:00,17.8,14.9,30.27,West,267,3.0,7.0,88,0.00,,SCT047,0.00,VWS V14.01,2013-01-04 01:06:00,
2013-01-03 19:11:00,17.7,14.8,30.27,West,265,4.0,7.0,88,0.00,,SCT047,0.00,VWS V14.01,2013-01-04 01:11:00,
2013-01-03 19:16:00,17.6,14.7,30.27,West,273,5.0,7.0,88,0.00,,SCT047,0.00,VWS V14.01,2013-01-04 01:16:00,
2013-01-03 19:21:00,17.6,14.7,30.27,SW,236,1.0,7.0,88,0.00,,SCT047,0.00,VWS V14.01,2013-01-04 01:21:00,
2013-01-03 19:26:00,17.3,14.4,30.27,West,269,4.0,7.0,88,0.00,,SCT047,0.00,VWS V14.01,2013-01-04 01:26:00,
2013-01-03 19:31:00,17.0,14.1,30.27,SW,223,4.0,5.0,88,0.00,,SCT047,0.00,VWS V14.01,2013-01-04 01:31:00,
2013-01-03 19:36:00,16.7,13.8,30.27,West,280,1.0,5.0,88,0.00,,FEW047,0.00,VWS V14.01,2013-01-04 01:36:00,
2013-01-03 19:41:00,16.5,13.8,30.27,WNW,287,5.0,7.0,89,0.00,,FEW047,0.00,VWS V14.01,2013-01-04 01:41:00,
2013-01-03 19:46:00,16.4,13.7,30.27,SSW,210,2.0,7.0,89,0.00,,FEW047,0.00,VWS V14.01,2013-01-04 01:46:00,
2013-01-03 19:51:00,16.3,13.6,30.27,SW,230,4.0,7.0,89,0.00,,FEW047,0.00,VWS V14.01,2013-01-04 01:51:00,
2013-01-03 19:56:00,16.4,13.7,30.27,West,280,4.0,7.0,89,0.00,,FEW047,0.00,VWS V14.01,2013-01-04 01:56:00,
2013-01-03 20:01:00,16.4,13.7,30.27,West,276,2.0,5.0,89,0.00,,FEW047,0.00,VWS V14.01,2013-01-04 02:01:00,
2013-01-03 20:06:00,16.2,13.3,30.27,WSW,242,2.0,6.0,88,0.00,,FEW047,0.00,VWS V14.01,2013-01-04 02:06:00,
2013-01-03 20:11:00,16.0,13.3,30.27,WSW,249,2.0,6.0,89,0.00,,FEW047,0.00,VWS V14.01,2013-01-04 02:11:00,
2013-01-03 20:16:00,16.0,13.3,30.27,WSW,256,5.0,6.0,89,0.00,,FEW047,0.00,VWS V14.01,2013-01-04 02:16:00,
2013-01-03 20:21:00,16.1,13.4,30.27,West,261,4.0,7.0,89,0.00,,FEW047,0.00,VWS V14.01,2013-01-04 02:21:00,
2013-01-03 20:26:00,16.0,13.3,30.27,WNW,288,4.0,7.0,89,0.00,,FEW047,0.00,VWS V14.01,2013-01-04 02:26:00,
2013-01-03 20:31:00,16.0,13.3,30.27,WNW,286,4.0,4.0,89,0.00,,FEW047,0.00,VWS V14.01,2013-01-04 02:31:00,
2013-01-03 20:36:00,15.9,13.2,30.27,West,277,3.0,5.0,89,0.00,,CLR,0.00,VWS V14.01,2013-01-04 02:36:00,
2013-01-03 20:41:00,15.6,12.9,30.27,WSW,253,2.0,7.0,89,0.00,,CLR,0.00,VWS V14.01,2013-01-04 02:41:00,
2013-01-03 20:46:00,15.4,12.7,30.27,West,275,4.0,7.0,89,0.00,,CLR,0.00,VWS V14.01,2013-01-04 02:46:00,
2013-01-03 20:51:00,15.2,12.6,30.27,West,280,6.0,7.0,89,0.00,,CLR,0.00,VWS V14.01,2013-01-04 02:51:00,
2013-01-03 20:56:00,15.1,12.4,30.27,West,273,3.0,7.0,89,0.00,,CLR,0.00,VWS V14.01,2013-01-04 02:56:00,
2013-01-03 21:01:00,15.0,12.4,30.27,SW,218,3.0,5.0,89,0.00,,CLR,0.00,VWS V14.01,2013-01-04 03:01:00,
2013-01-03 21:06:00,15.0,12.4,30.27,West,273,6.0,7.0,89,0.00,,CLR,0.00,VWS V14.01,2013-01-04 03:06:00,
2013-01-03 21:11:00,15.0,12.4,30.26,West,272,4.0,7.0,89,0.00,,CLR,0.00,VWS V14.01,2013-01-04 03:11:00,
2013-01-03 21:16:00,15.0,12.4,30.26,West,271,3.0,7.0,89,0.00,,CLR,0.00,VWS V14.01,2013-01-04 03:16:00,
2013-01-03 21:21:00,14.7,12.1,30.26,WNW,284,1.0,7.0,89,0.00,,CLR,0.00,VWS V14.01,2013-01-04 03:21:00,
2013-01-03 21:26:00,14.4,12.0,30.26,SSW,207,1.0,7.0,90,0.00,,CLR,0.00,VWS V14.01,2013-01-04 03:26:00,
2013-01-03 21:31:00,14.3,11.9,30.26,WSW,252,1.0,3.0,90,0.00,,CLR,0.00,VWS V14.01,2013-01-04 03:31:00,
2013-01-03 21:36:00,14.2,11.6,30.26,SW,227,1.0,5.0,89,0.00,,CLR,0.00,VWS V14.01,2013-01-04 03:36:00,
2013-01-03 21:41:00,14.0,11.4,30.26,SW,226,2.0,5.0,89,0.00,,CLR,0.00,VWS V14.01,2013-01-04 03:41:00,
2013-01-03 21:46:00,13.6,11.0,30.26,West,265,1.0,5.0,89,0.00,,CLR,0.00,VWS V14.01,2013-01-04 03:46:00,
2013-01-03 21:51:00,13.5,11.0,30.26,West,267,3.0,5.0,90,0.00,,,0.00,weatherlink.com 1.10,2013-01-04 03:51:00,
2013-01-03 22:00:00,13.6,11.2,30.26,West,270,2.0,7.0,90,0.00,,CLR,0.00,VWS V14.01,2013-01-04 04:00:00,
2013-01-03 22:07:00,13.7,11.0,30.26,West,260,2.0,5.0,90,0.00,,,0.00,weatherlink.com 1.10,2013-01-04 04:07:00,
2013-01-03 22:22:00,13.9,12.0,30.26,SW,214,3.0,8.0,90,0.00,,,0.00,weatherlink.com 1.10,2013-01-04 04:22:00,
2013-01-03 22:30:00,14.1,11.7,30.26,West,270,3.0,10.0,90,0.00,,CLR,0.00,VWS V14.01,2013-01-04 04:30:00,
2013-01-03 22:37:00,14.4,12.0,30.26,WSW,250,5.0,10.0,89,0.00,,,0.00,weatherlink.com 1.10,2013-01-04 04:37:00,
2013-01-03 22:52:00,14.4,12.0,30.26,WSW,254,4.0,10.0,89,0.00,,,0.00,weatherlink.com 1.10,2013-01-04 04:52:00,
2013-01-03 23:00:00,14.2,11.3,30.26,West,270,5.0,11.0,88,0.00,,CLR,0.00,VWS V14.01,2013-01-04 05:00:00,
2013-01-03 23:07:00,14.1,11.0,30.26,WNW,284,4.0,11.0,88,0.00,,,0.00,weatherlink.com 1.10,2013-01-04 05:07:00,
2013-01-03 23:22:00,13.7,10.0,30.26,WNW,283,11.0,19.0,86,0.00,,,0.00,weatherlink.com 1.10,2013-01-04 05:22:00,
2013-01-03 23:30:00,13.5,9.8,30.26,West,270,7.0,19.0,85,0.00,,CLR,0.00,VWS V14.01,2013-01-04 05:30:00,
2013-01-03 23:37:00,13.2,10.0,30.26,West,273,5.0,13.0,86,0.00,,,0.00,weatherlink.com 1.10,2013-01-04 05:37:00,
2013-01-03 23:52:00,12.7,9.0,30.26,NW,310,5.0,14.0,86,0.00,,,0.00,weatherlink.com 1.10,2013-01-04 05:52:00,